sensor_id;sensor_type;location;lat;lon;timestamp;pressure;altitude;pressure_sealevel;temperature;humidity
25722;BME280;13578;53.450;15.496;2024-03-22T00:01:50;100063.88;;;5.68;100.00
25722;BME280;13578;53.450;15.496;2024-03-22T00:04:51;100054.94;;;5.66;100.00
25722;BME280;13578;53.450;15.496;2024-03-22T00:07:51;100051.53;;;5.62;100.00
25722;BME280;13578;53.450;15.496;2024-03-22T00:10:52;100058.00;;;5.61;100.00
25722;BME280;13578;53.450;15.496;2024-03-22T00:13:53;100055.53;;;5.71;100.00
25722;BME280;13578;53.450;15.496;2024-03-22T00:16:54;100055.53;;;5.71;100.00
25722;BME280;13578;53.450;15.496;2024-03-22T00:19:54;100052.44;;;5.63;100.00
25722;BME280;13578;53.450;15.496;2024-03-22T00:22:56;100054.78;;;5.54;100.00
25722;BME280;13578;53.450;15.496;2024-03-22T00:25:56;100057.69;;;5.51;100.00
25722;BME280;13578;53.450;15.496;2024-03-22T00:28:57;100060.91;;;5.44;100.00
25722;BME280;13578;53.450;15.496;2024-03-22T00:32:00;100068.97;;;5.45;100.00
25722;BME280;13578;53.450;15.496;2024-03-22T00:35:01;100065.59;;;5.41;100.00
25722;BME280;13578;53.450;15.496;2024-03-22T00:38:02;100069.59;;;5.36;100.00
25722;BME280;13578;53.450;15.496;2024-03-22T00:41:02;100070.56;;;5.35;100.00
25722;BME280;13578;53.450;15.496;2024-03-22T00:44:03;100066.47;;;5.42;100.00
25722;BME280;13578;53.450;15.496;2024-03-22T00:47:04;100067.53;;;5.39;100.00
25722;BME280;13578;53.450;15.496;2024-03-22T00:50:06;100063.16;;;5.37;100.00
25722;BME280;13578;53.450;15.496;2024-03-22T00:53:07;100074.53;;;5.44;100.00
25722;BME280;13578;53.450;15.496;2024-03-22T00:56:08;100070.47;;;5.36;100.00
25722;BME280;13578;53.450;15.496;2024-03-22T00:59:08;100063.44;;;5.18;100.00
25722;BME280;13578;53.450;15.496;2024-03-22T01:02:09;100046.34;;;5.30;100.00
25722;BME280;13578;53.450;15.496;2024-03-22T01:05:10;100044.22;;;5.21;100.00
25722;BME280;13578;53.450;15.496;2024-03-22T01:08:10;100042.00;;;5.28;100.00
25722;BME280;13578;53.450;15.496;2024-03-22T01:11:11;100037.69;;;5.38;100.00
25722;BME280;13578;53.450;15.496;2024-03-22T01:14:12;100034.69;;;5.28;100.00
25722;BME280;13578;53.450;15.496;2024-03-22T01:17:12;100034.25;;;5.49;100.00
25722;BME280;13578;53.450;15.496;2024-03-22T01:20:13;100038.47;;;5.40;100.00
25722;BME280;13578;53.450;15.496;2024-03-22T01:23:13;100028.47;;;5.26;100.00
25722;BME280;13578;53.450;15.496;2024-03-22T01:26:14;100026.41;;;5.30;100.00
25722;BME280;13578;53.450;15.496;2024-03-22T01:29:15;100015.44;;;5.31;100.00
25722;BME280;13578;53.450;15.496;2024-03-22T01:32:15;100002.31;;;5.38;100.00
25722;BME280;13578;53.450;15.496;2024-03-22T01:35:16;100011.53;;;5.35;100.00
25722;BME280;13578;53.450;15.496;2024-03-22T01:38:17;100002.72;;;5.32;100.00
25722;BME280;13578;53.450;15.496;2024-03-22T01:41:17;100000.56;;;5.37;100.00
25722;BME280;13578;53.450;15.496;2024-03-22T01:44:18;99998.03;;;5.34;100.00
25722;BME280;13578;53.450;15.496;2024-03-22T01:47:19;99987.63;;;5.26;100.00
25722;BME280;13578;53.450;15.496;2024-03-22T01:50:22;99984.56;;;5.32;100.00
25722;BME280;13578;53.450;15.496;2024-03-22T01:53:24;99979.78;;;5.21;100.00
25722;BME280;13578;53.450;15.496;2024-03-22T01:56:25;99980.63;;;5.36;100.00
25722;BME280;13578;53.450;15.496;2024-03-22T01:59:26;99984.56;;;5.32;100.00
25722;BME280;13578;53.450;15.496;2024-03-22T02:02:27;99986.16;;;5.49;100.00
25722;BME280;13578;53.450;15.496;2024-03-22T02:05:28;99970.00;;;5.46;100.00
25722;BME280;13578;53.450;15.496;2024-03-22T02:08:28;99963.91;;;5.43;100.00
25722;BME280;13578;53.450;15.496;2024-03-22T02:11:29;99958.00;;;5.36;100.00
25722;BME280;13578;53.450;15.496;2024-03-22T02:14:30;99952.25;;;5.26;100.00
25722;BME280;13578;53.450;15.496;2024-03-22T02:17:31;99946.94;;;5.24;100.00
25722;BME280;13578;53.450;15.496;2024-03-22T02:20:32;99951.09;;;5.30;100.00
25722;BME280;13578;53.450;15.496;2024-03-22T02:23:34;99940.66;;;5.37;100.00
25722;BME280;13578;53.450;15.496;2024-03-22T02:26:35;99933.47;;;5.50;100.00
25722;BME280;13578;53.450;15.496;2024-03-22T02:29:35;99937.09;;;5.36;100.00
25722;BME280;13578;53.450;15.496;2024-03-22T02:32:36;99935.81;;;5.42;100.00
25722;BME280;13578;53.450;15.496;2024-03-22T02:35:39;99934.06;;;5.41;100.00
25722;BME280;13578;53.450;15.496;2024-03-22T02:38:40;99928.56;;;5.28;100.00
25722;BME280;13578;53.450;15.496;2024-03-22T02:41:41;99917.78;;;5.27;100.00
25722;BME280;13578;53.450;15.496;2024-03-22T02:44:41;99897.28;;;5.21;100.00
25722;BME280;13578;53.450;15.496;2024-03-22T02:47:45;99898.31;;;5.33;100.00
25722;BME280;13578;53.450;15.496;2024-03-22T02:50:46;99895.97;;;5.41;100.00
25722;BME280;13578;53.450;15.496;2024-03-22T02:53:47;99896.16;;;5.38;100.00
25722;BME280;13578;53.450;15.496;2024-03-22T02:56:48;99896.63;;;5.45;100.00
25722;BME280;13578;53.450;15.496;2024-03-22T02:59:49;99899.72;;;5.53;100.00
25722;BME280;13578;53.450;15.496;2024-03-22T03:02:50;99887.50;;;5.46;100.00
25722;BME280;13578;53.450;15.496;2024-03-22T03:05:51;99887.78;;;5.41;100.00
25722;BME280;13578;53.450;15.496;2024-03-22T03:08:52;99876.13;;;5.39;100.00
25722;BME280;13578;53.450;15.496;2024-03-22T03:11:53;99862.75;;;5.36;100.00
25722;BME280;13578;53.450;15.496;2024-03-22T03:14:54;99866.78;;;5.43;100.00
25722;BME280;13578;53.450;15.496;2024-03-22T03:17:54;99854.16;;;5.42;100.00
25722;BME280;13578;53.450;15.496;2024-03-22T03:20:55;99851.00;;;5.48;100.00
25722;BME280;13578;53.450;15.496;2024-03-22T03:23:56;99833.66;;;5.36;100.00
25722;BME280;13578;53.450;15.496;2024-03-22T03:26:56;99833.47;;;5.39;100.00
25722;BME280;13578;53.450;15.496;2024-03-22T03:29:57;99833.91;;;5.46;100.00
25722;BME280;13578;53.450;15.496;2024-03-22T03:32:57;99820.53;;;5.43;100.00
25722;BME280;13578;53.450;15.496;2024-03-22T03:35:58;99818.00;;;5.40;100.00
25722;BME280;13578;53.450;15.496;2024-03-22T03:38:59;99818.41;;;5.34;100.00
25722;BME280;13578;53.450;15.496;2024-03-22T03:41:59;99815.69;;;5.34;100.00
25722;BME280;13578;53.450;15.496;2024-03-22T03:45:00;99813.63;;;5.37;100.00
25722;BME280;13578;53.450;15.496;2024-03-22T03:48:01;99808.31;;;5.36;100.00
25722;BME280;13578;53.450;15.496;2024-03-22T03:51:02;99809.84;;;5.40;100.00
25722;BME280;13578;53.450;15.496;2024-03-22T03:54:03;99796.84;;;5.31;100.00
25722;BME280;13578;53.450;15.496;2024-03-22T03:57:04;99787.72;;;5.32;100.00
25722;BME280;13578;53.450;15.496;2024-03-22T04:00:05;99784.66;;;5.36;100.00
25722;BME280;13578;53.450;15.496;2024-03-22T04:03:06;99775.00;;;5.32;100.00
25722;BME280;13578;53.450;15.496;2024-03-22T04:06:07;99771.53;;;5.43;100.00
25722;BME280;13578;53.450;15.496;2024-03-22T04:09:07;99760.97;;;5.38;100.00
25722;BME280;13578;53.450;15.496;2024-03-22T04:12:09;99766.59;;;5.35;100.00
25722;BME280;13578;53.450;15.496;2024-03-22T04:15:09;99763.38;;;5.43;100.00
25722;BME280;13578;53.450;15.496;2024-03-22T04:18:10;99743.41;;;5.43;100.00
25722;BME280;13578;53.450;15.496;2024-03-22T04:21:11;99746.59;;;5.49;100.00
25722;BME280;13578;53.450;15.496;2024-03-22T04:24:11;99748.53;;;5.47;100.00
25722;BME280;13578;53.450;15.496;2024-03-22T04:27:12;99749.09;;;5.39;100.00
25722;BME280;13578;53.450;15.496;2024-03-22T04:30:13;99735.38;;;5.41;100.00
25722;BME280;13578;53.450;15.496;2024-03-22T04:33:14;99724.59;;;5.52;100.00
25722;BME280;13578;53.450;15.496;2024-03-22T04:36:15;99749.41;;;5.35;100.00
25722;BME280;13578;53.450;15.496;2024-03-22T04:39:16;99746.69;;;5.35;100.00
25722;BME280;13578;53.450;15.496;2024-03-22T04:42:17;99739.25;;;5.37;100.00
25722;BME280;13578;53.450;15.496;2024-03-22T04:45:17;99739.63;;;5.32;100.00
25722;BME280;13578;53.450;15.496;2024-03-22T04:48:20;99717.50;;;5.37;100.00
25722;BME280;13578;53.450;15.496;2024-03-22T04:51:21;99714.03;;;5.48;100.00
25722;BME280;13578;53.450;15.496;2024-03-22T04:54:21;99709.34;;;5.63;100.00
25722;BME280;13578;53.450;15.496;2024-03-22T04:57:22;99716.34;;;5.54;100.00
25722;BME280;13578;53.450;15.496;2024-03-22T05:00:23;99708.50;;;5.49;100.00
25722;BME280;13578;53.450;15.496;2024-03-22T05:03:25;99710.97;;;5.52;100.00
25722;BME280;13578;53.450;15.496;2024-03-22T05:06:26;99706.50;;;5.51;100.00
25722;BME280;13578;53.450;15.496;2024-03-22T05:09:26;99703.03;;;5.49;100.00
25722;BME280;13578;53.450;15.496;2024-03-22T05:12:27;99710.31;;;5.49;100.00
25722;BME280;13578;53.450;15.496;2024-03-22T05:15:28;99720.78;;;5.55;100.00
25722;BME280;13578;53.450;15.496;2024-03-22T05:18:29;99723.94;;;5.49;100.00
25722;BME280;13578;53.450;15.496;2024-03-22T05:21:29;99723.41;;;5.56;100.00
25722;BME280;13578;53.450;15.496;2024-03-22T05:24:30;99719.81;;;5.56;100.00
25722;BME280;13578;53.450;15.496;2024-03-22T05:27:31;99712.41;;;5.58;100.00
25722;BME280;13578;53.450;15.496;2024-03-22T05:30:32;99699.44;;;5.62;100.00
25722;BME280;13578;53.450;15.496;2024-03-22T05:33:33;99701.50;;;5.58;100.00
25722;BME280;13578;53.450;15.496;2024-03-22T05:36:34;99698.66;;;5.60;100.00
25722;BME280;13578;53.450;15.496;2024-03-22T05:39:34;99681.03;;;5.65;100.00
25722;BME280;13578;53.450;15.496;2024-03-22T05:42:35;99675.03;;;5.73;100.00
25722;BME280;13578;53.450;15.496;2024-03-22T05:45:36;99671.44;;;5.85;100.00
25722;BME280;13578;53.450;15.496;2024-03-22T05:48:37;99669.91;;;5.81;100.00
25722;BME280;13578;53.450;15.496;2024-03-22T05:51:37;99663.41;;;5.71;100.00
25722;BME280;13578;53.450;15.496;2024-03-22T05:54:38;99657.50;;;5.90;100.00
25722;BME280;13578;53.450;15.496;2024-03-22T05:57:39;99654.84;;;5.88;100.00
25722;BME280;13578;53.450;15.496;2024-03-22T06:00:39;99648.31;;;6.04;100.00
25722;BME280;13578;53.450;15.496;2024-03-22T06:03:40;99650.94;;;6.06;100.00
25722;BME280;13578;53.450;15.496;2024-03-22T06:06:41;99669.03;;;5.94;100.00
25722;BME280;13578;53.450;15.496;2024-03-22T06:09:41;99649.09;;;5.80;100.00
25722;BME280;13578;53.450;15.496;2024-03-22T06:12:49;99647.66;;;5.87;100.00
25722;BME280;13578;53.450;15.496;2024-03-22T06:15:50;99643.75;;;5.92;100.00
25722;BME280;13578;53.450;15.496;2024-03-22T06:18:51;99646.34;;;6.06;100.00
25722;BME280;13578;53.450;15.496;2024-03-22T06:21:51;99643.13;;;6.01;100.00
25722;BME280;13578;53.450;15.496;2024-03-22T06:24:53;99642.19;;;6.13;100.00
25722;BME280;13578;53.450;15.496;2024-03-22T06:27:53;99628.16;;;6.07;100.00
25722;BME280;13578;53.450;15.496;2024-03-22T06:30:54;99634.47;;;6.07;100.00
25722;BME280;13578;53.450;15.496;2024-03-22T06:33:55;99634.22;;;6.10;100.00
25722;BME280;13578;53.450;15.496;2024-03-22T06:37:02;99625.41;;;6.07;100.00
25722;BME280;13578;53.450;15.496;2024-03-22T06:40:03;99618.44;;;6.15;100.00
25722;BME280;13578;53.450;15.496;2024-03-22T06:43:05;99608.28;;;6.17;100.00
25722;BME280;13578;53.450;15.496;2024-03-22T06:46:06;99611.53;;;6.23;100.00
25722;BME280;13578;53.450;15.496;2024-03-22T06:49:06;99605.03;;;6.36;100.00
25722;BME280;13578;53.450;15.496;2024-03-22T06:52:07;99598.94;;;6.33;100.00
25722;BME280;13578;53.450;15.496;2024-03-22T06:55:08;99591.31;;;6.38;100.00
25722;BME280;13578;53.450;15.496;2024-03-22T06:58:08;99590.59;;;6.47;100.00
25722;BME280;13578;53.450;15.496;2024-03-22T07:01:09;99591.81;;;6.43;100.00
25722;BME280;13578;53.450;15.496;2024-03-22T07:04:10;99586.41;;;6.55;100.00
25722;BME280;13578;53.450;15.496;2024-03-22T07:07:10;99575.28;;;6.58;100.00
25722;BME280;13578;53.450;15.496;2024-03-22T07:10:11;99582.78;;;6.78;100.00
25722;BME280;13578;53.450;15.496;2024-03-22T07:13:12;99589.94;;;6.68;100.00
25722;BME280;13578;53.450;15.496;2024-03-22T07:16:12;99594.28;;;6.71;100.00
25722;BME280;13578;53.450;15.496;2024-03-22T07:19:13;99601.28;;;6.86;100.00
25722;BME280;13578;53.450;15.496;2024-03-22T07:22:14;99602.28;;;6.85;100.00
25722;BME280;13578;53.450;15.496;2024-03-22T07:25:15;99609.00;;;7.04;100.00
25722;BME280;13578;53.450;15.496;2024-03-22T07:28:15;99610.88;;;7.03;100.00
25722;BME280;13578;53.450;15.496;2024-03-22T07:31:16;99616.81;;;7.08;100.00
25722;BME280;13578;53.450;15.496;2024-03-22T07:34:17;99621.88;;;6.90;100.00
25722;BME280;13578;53.450;15.496;2024-03-22T07:37:17;99611.31;;;6.86;100.00
25722;BME280;13578;53.450;15.496;2024-03-22T07:40:18;99621.50;;;6.95;100.00
25722;BME280;13578;53.450;15.496;2024-03-22T07:43:20;99603.16;;;6.97;100.00
25722;BME280;13578;53.450;15.496;2024-03-22T07:46:21;99600.47;;;7.08;100.00
25722;BME280;13578;53.450;15.496;2024-03-22T07:49:21;99600.16;;;6.89;100.00
25722;BME280;13578;53.450;15.496;2024-03-22T07:52:22;99594.38;;;7.05;100.00
25722;BME280;13578;53.450;15.496;2024-03-22T07:55:24;99593.88;;;7.11;100.00
25722;BME280;13578;53.450;15.496;2024-03-22T07:58:25;99585.47;;;7.14;100.00
25722;BME280;13578;53.450;15.496;2024-03-22T08:01:26;99582.63;;;7.27;100.00
25722;BME280;13578;53.450;15.496;2024-03-22T08:04:27;99594.28;;;7.18;100.00
25722;BME280;13578;53.450;15.496;2024-03-22T08:07:28;99596.78;;;7.32;100.00
25722;BME280;13578;53.450;15.496;2024-03-22T08:10:29;99602.97;;;7.23;100.00
25722;BME280;13578;53.450;15.496;2024-03-22T08:13:30;99583.75;;;7.36;100.00
25722;BME280;13578;53.450;15.496;2024-03-22T08:16:30;99580.66;;;7.40;100.00
25722;BME280;13578;53.450;15.496;2024-03-22T08:19:31;99573.19;;;7.31;100.00
25722;BME280;13578;53.450;15.496;2024-03-22T08:22:31;99580.75;;;7.39;100.00
25722;BME280;13578;53.450;15.496;2024-03-22T08:25:32;99593.69;;;7.48;100.00
25722;BME280;13578;53.450;15.496;2024-03-22T08:28:33;99583.13;;;7.43;100.00
25722;BME280;13578;53.450;15.496;2024-03-22T08:31:33;99576.81;;;7.43;100.00
25722;BME280;13578;53.450;15.496;2024-03-22T08:34:34;99585.63;;;7.46;100.00
25722;BME280;13578;53.450;15.496;2024-03-22T08:37:35;99580.38;;;7.43;100.00
25722;BME280;13578;53.450;15.496;2024-03-22T08:40:39;99583.25;;;7.42;100.00
25722;BME280;13578;53.450;15.496;2024-03-22T08:43:39;99577.16;;;7.38;100.00
25722;BME280;13578;53.450;15.496;2024-03-22T08:46:40;99578.66;;;7.42;100.00
25722;BME280;13578;53.450;15.496;2024-03-22T08:49:41;99578.78;;;7.41;100.00
25722;BME280;13578;53.450;15.496;2024-03-22T08:52:46;99566.13;;;7.40;100.00
25722;BME280;13578;53.450;15.496;2024-03-22T08:55:47;99571.84;;;7.37;100.00
25722;BME280;13578;53.450;15.496;2024-03-22T08:58:48;99561.78;;;7.37;100.00
25722;BME280;13578;53.450;15.496;2024-03-22T09:01:50;99565.13;;;7.29;100.00
25722;BME280;13578;53.450;15.496;2024-03-22T09:04:50;99552.72;;;7.25;100.00
25722;BME280;13578;53.450;15.496;2024-03-22T09:07:51;99546.91;;;7.41;100.00
25722;BME280;13578;53.450;15.496;2024-03-22T09:10:54;99511.75;;;7.48;100.00
25722;BME280;13578;53.450;15.496;2024-03-22T09:13:54;99513.38;;;7.51;100.00
25722;BME280;13578;53.450;15.496;2024-03-22T09:16:55;99501.56;;;7.61;100.00
25722;BME280;13578;53.450;15.496;2024-03-22T09:19:56;99504.56;;;7.58;100.00
25722;BME280;13578;53.450;15.496;2024-03-22T09:22:56;99500.56;;;7.62;100.00
25722;BME280;13578;53.450;15.496;2024-03-22T09:25:59;99479.69;;;7.73;100.00
25722;BME280;13578;53.450;15.496;2024-03-22T09:29:01;99466.13;;;7.83;100.00
25722;BME280;13578;53.450;15.496;2024-03-22T09:32:02;99457.66;;;7.86;100.00
25722;BME280;13578;53.450;15.496;2024-03-22T09:35:03;99442.06;;;7.76;100.00
25722;BME280;13578;53.450;15.496;2024-03-22T09:38:03;99455.72;;;7.76;100.00
25722;BME280;13578;53.450;15.496;2024-03-22T09:41:04;99439.34;;;7.76;100.00
25722;BME280;13578;53.450;15.496;2024-03-22T09:44:05;99426.84;;;7.95;100.00
25722;BME280;13578;53.450;15.496;2024-03-22T09:47:08;99431.59;;;7.93;100.00
25722;BME280;13578;53.450;15.496;2024-03-22T09:50:09;99429.38;;;8.08;100.00
25722;BME280;13578;53.450;15.496;2024-03-22T09:53:10;99434.00;;;8.07;100.00
25722;BME280;13578;53.450;15.496;2024-03-22T09:56:14;99438.19;;;8.11;100.00
25722;BME280;13578;53.450;15.496;2024-03-22T09:59:15;99436.41;;;8.22;100.00
25722;BME280;13578;53.450;15.496;2024-03-22T10:02:16;99451.94;;;8.21;100.00
25722;BME280;13578;53.450;15.496;2024-03-22T10:05:18;99452.59;;;8.14;100.00
25722;BME280;13578;53.450;15.496;2024-03-22T10:08:18;99449.88;;;8.14;100.00
25722;BME280;13578;53.450;15.496;2024-03-22T10:11:19;99436.59;;;8.09;100.00
25722;BME280;13578;53.450;15.496;2024-03-22T10:14:20;99450.81;;;8.24;100.00
25722;BME280;13578;53.450;15.496;2024-03-22T10:17:20;99441.81;;;8.33;100.00
25722;BME280;13578;53.450;15.496;2024-03-22T10:20:21;99453.75;;;8.32;100.00
25722;BME280;13578;53.450;15.496;2024-03-22T10:23:22;99448.81;;;8.26;100.00
25722;BME280;13578;53.450;15.496;2024-03-22T10:26:22;99450.72;;;8.14;100.00
25722;BME280;13578;53.450;15.496;2024-03-22T10:29:23;99452.81;;;8.22;100.00
25722;BME280;13578;53.450;15.496;2024-03-22T10:32:24;99443.94;;;8.30;100.00
25722;BME280;13578;53.450;15.496;2024-03-22T10:35:25;99453.09;;;8.40;100.00
25722;BME280;13578;53.450;15.496;2024-03-22T10:38:27;99451.22;;;8.40;100.00
25722;BME280;13578;53.450;15.496;2024-03-22T10:41:29;99438.53;;;8.39;100.00
25722;BME280;13578;53.450;15.496;2024-03-22T10:44:29;99441.56;;;8.36;100.00
25722;BME280;13578;53.450;15.496;2024-03-22T10:47:32;99438.16;;;8.44;100.00
25722;BME280;13578;53.450;15.496;2024-03-22T10:50:33;99438.63;;;8.49;100.00
25722;BME280;13578;53.450;15.496;2024-03-22T10:53:36;99440.66;;;8.47;100.00
25722;BME280;13578;53.450;15.496;2024-03-22T10:56:39;99436.25;;;8.45;100.00
25722;BME280;13578;53.450;15.496;2024-03-22T10:59:43;99441.28;;;8.39;100.00
25722;BME280;13578;53.450;15.496;2024-03-22T11:02:45;99425.31;;;8.45;100.00
25722;BME280;13578;53.450;15.496;2024-03-22T11:05:46;99419.63;;;8.48;100.00
25722;BME280;13578;53.450;15.496;2024-03-22T11:08:51;99413.06;;;8.60;100.00
25722;BME280;13578;53.450;15.496;2024-03-22T11:11:53;99408.69;;;8.48;100.00
25722;BME280;13578;53.450;15.496;2024-03-22T11:14:54;99418.25;;;8.53;100.00
25722;BME280;13578;53.450;15.496;2024-03-22T11:17:56;99403.81;;;8.51;100.00
25722;BME280;13578;53.450;15.496;2024-03-22T11:20:57;99386.66;;;8.70;100.00
25722;BME280;13578;53.450;15.496;2024-03-22T11:23:58;99393.56;;;8.74;100.00
25722;BME280;13578;53.450;15.496;2024-03-22T11:26:58;99383.09;;;8.80;100.00
25722;BME280;13578;53.450;15.496;2024-03-22T11:29:59;99381.00;;;8.93;100.00
25722;BME280;13578;53.450;15.496;2024-03-22T11:33:04;99385.59;;;8.93;100.00
25722;BME280;13578;53.450;15.496;2024-03-22T11:36:05;99376.16;;;8.76;100.00
25722;BME280;13578;53.450;15.496;2024-03-22T11:39:06;99374.94;;;8.89;100.00
25722;BME280;13578;53.450;15.496;2024-03-22T11:42:08;99370.00;;;8.83;100.00
25722;BME280;13578;53.450;15.496;2024-03-22T11:45:11;99364.28;;;8.96;100.00
25722;BME280;13578;53.450;15.496;2024-03-22T11:48:12;99372.50;;;8.96;100.00
25722;BME280;13578;53.450;15.496;2024-03-22T11:51:13;99370.06;;;9.03;100.00
25722;BME280;13578;53.450;15.496;2024-03-22T11:54:14;99370.84;;;9.15;100.00
25722;BME280;13578;53.450;15.496;2024-03-22T11:57:15;99366.63;;;9.11;100.00
25722;BME280;13578;53.450;15.496;2024-03-22T12:00:18;99361.47;;;9.17;100.00
25722;BME280;13578;53.450;15.496;2024-03-22T12:03:19;99361.22;;;9.30;100.00
25722;BME280;13578;53.450;15.496;2024-03-22T12:06:23;99367.69;;;9.29;100.00
25722;BME280;13578;53.450;15.496;2024-03-22T12:09:23;99367.44;;;9.32;100.00
25722;BME280;13578;53.450;15.496;2024-03-22T12:12:24;99349.69;;;9.36;100.00
25722;BME280;13578;53.450;15.496;2024-03-22T12:15:26;99345.66;;;9.41;100.00
25722;BME280;13578;53.450;15.496;2024-03-22T12:18:26;99338.91;;;9.45;100.00
25722;BME280;13578;53.450;15.496;2024-03-22T12:21:27;99332.41;;;9.46;100.00
25722;BME280;13578;53.450;15.496;2024-03-22T12:24:28;99342.91;;;9.41;100.00
25722;BME280;13578;53.450;15.496;2024-03-22T12:27:28;99331.25;;;9.29;100.00
25722;BME280;13578;53.450;15.496;2024-03-22T12:30:29;99326.38;;;9.42;100.00
25722;BME280;13578;53.450;15.496;2024-03-22T12:33:30;99336.75;;;9.38;100.00
25722;BME280;13578;53.450;15.496;2024-03-22T12:36:31;99350.44;;;9.48;100.00
25722;BME280;13578;53.450;15.496;2024-03-22T12:39:32;99337.59;;;9.49;100.00
25722;BME280;13578;53.450;15.496;2024-03-22T12:42:33;99327.06;;;9.44;100.00
25722;BME280;13578;53.450;15.496;2024-03-22T12:45:33;99319.00;;;9.43;100.00
25722;BME280;13578;53.450;15.496;2024-03-22T12:48:34;99335.00;;;9.37;100.00
25722;BME280;13578;53.450;15.496;2024-03-22T12:51:35;99322.63;;;9.43;100.00
25722;BME280;13578;53.450;15.496;2024-03-22T12:54:36;99315.69;;;9.49;100.00
25722;BME280;13578;53.450;15.496;2024-03-22T12:57:37;99308.03;;;9.43;100.00
25722;BME280;13578;53.450;15.496;2024-03-22T13:00:37;99308.34;;;9.49;100.00
25722;BME280;13578;53.450;15.496;2024-03-22T13:03:38;99297.38;;;9.59;100.00
25722;BME280;13578;53.450;15.496;2024-03-22T13:06:39;99303.88;;;9.68;100.00
25722;BME280;13578;53.450;15.496;2024-03-22T13:09:39;99291.75;;;9.70;100.00
25722;BME280;13578;53.450;15.496;2024-03-22T13:12:42;99296.97;;;9.64;100.00
25722;BME280;13578;53.450;15.496;2024-03-22T13:15:43;99282.69;;;9.70;100.00
25722;BME280;13578;53.450;15.496;2024-03-22T13:18:43;99273.28;;;9.73;100.00
25722;BME280;13578;53.450;15.496;2024-03-22T13:21:44;99273.56;;;9.89;100.00
25722;BME280;13578;53.450;15.496;2024-03-22T13:24:48;99265.75;;;9.94;100.00
25722;BME280;13578;53.450;15.496;2024-03-22T13:27:50;99259.38;;;10.13;100.00
25722;BME280;13578;53.450;15.496;2024-03-22T13:31:03;99260.66;;;10.19;100.00
25722;BME280;13578;53.450;15.496;2024-03-22T13:34:06;99262.22;;;10.22;100.00
25722;BME280;13578;53.450;15.496;2024-03-22T13:37:07;99266.72;;;10.23;100.00
25722;BME280;13578;53.450;15.496;2024-03-22T13:40:08;99262.97;;;10.14;100.00
25722;BME280;13578;53.450;15.496;2024-03-22T13:43:09;99276.09;;;10.20;100.00
25722;BME280;13578;53.450;15.496;2024-03-22T13:46:09;99270.06;;;10.07;100.00
25722;BME280;13578;53.450;15.496;2024-03-22T13:49:19;99252.47;;;9.99;100.00
25722;BME280;13578;53.450;15.496;2024-03-22T13:52:20;99260.84;;;9.98;100.00
25722;BME280;13578;53.450;15.496;2024-03-22T13:55:21;99251.63;;;9.99;100.00
25722;BME280;13578;53.450;15.496;2024-03-22T13:58:22;99244.13;;;10.01;100.00
25722;BME280;13578;53.450;15.496;2024-03-22T14:01:22;99245.53;;;10.05;100.00
25722;BME280;13578;53.450;15.496;2024-03-22T14:04:23;99243.56;;;9.97;100.00
25722;BME280;13578;53.450;15.496;2024-03-22T14:07:26;99252.78;;;9.96;100.00
25722;BME280;13578;53.450;15.496;2024-03-22T14:10:27;99249.63;;;9.91;100.00
25722;BME280;13578;53.450;15.496;2024-03-22T14:13:30;99241.72;;;9.78;100.00
25722;BME280;13578;53.450;15.496;2024-03-22T14:16:30;99245.72;;;9.84;100.00
25722;BME280;13578;53.450;15.496;2024-03-22T14:19:31;99239.00;;;9.68;100.00
25722;BME280;13578;53.450;15.496;2024-03-22T14:22:32;99231.63;;;9.69;100.00
25722;BME280;13578;53.450;15.496;2024-03-22T14:25:32;99233.63;;;9.77;100.00
25722;BME280;13578;53.450;15.496;2024-03-22T14:28:34;99214.91;;;9.62;100.00
25722;BME280;13578;53.450;15.496;2024-03-22T14:31:37;99208.97;;;9.67;100.00
25722;BME280;13578;53.450;15.496;2024-03-22T14:34:38;99207.25;;;9.56;100.00
25722;BME280;13578;53.450;15.496;2024-03-22T14:37:39;99204.13;;;9.51;100.00
25722;BME280;13578;53.450;15.496;2024-03-22T14:40:39;99188.25;;;9.54;100.00
25722;BME280;13578;53.450;15.496;2024-03-22T14:43:40;99187.41;;;9.34;100.00
25722;BME280;13578;53.450;15.496;2024-03-22T14:46:41;99176.03;;;9.29;100.00
25722;BME280;13578;53.450;15.496;2024-03-22T14:49:42;99163.19;;;9.40;100.00
25722;BME280;13578;53.450;15.496;2024-03-22T14:52:42;99148.38;;;9.32;100.00
25722;BME280;13578;53.450;15.496;2024-03-22T14:55:58;99142.44;;;9.27;100.00
25722;BME280;13578;53.450;15.496;2024-03-22T14:58:59;99142.31;;;9.19;100.00
25722;BME280;13578;53.450;15.496;2024-03-22T15:02:01;99123.03;;;9.20;100.00
25722;BME280;13578;53.450;15.496;2024-03-22T15:05:02;99112.94;;;9.11;100.00
25722;BME280;13578;53.450;15.496;2024-03-22T15:08:04;99101.84;;;9.13;100.00
25722;BME280;13578;53.450;15.496;2024-03-22T15:11:05;99093.63;;;9.03;100.00
25722;BME280;13578;53.450;15.496;2024-03-22T15:14:06;99089.75;;;9.05;100.00
25722;BME280;13578;53.450;15.496;2024-03-22T15:17:06;99077.66;;;8.98;100.00
25722;BME280;13578;53.450;15.496;2024-03-22T15:20:09;99069.16;;;9.01;100.00
25722;BME280;13578;53.450;15.496;2024-03-22T15:23:10;99060.38;;;8.98;100.00
25722;BME280;13578;53.450;15.496;2024-03-22T15:26:10;99055.34;;;8.93;100.00
25722;BME280;13578;53.450;15.496;2024-03-22T15:29:11;99044.09;;;8.96;100.00
25722;BME280;13578;53.450;15.496;2024-03-22T15:32:11;99037.78;;;8.86;100.00
25722;BME280;13578;53.450;15.496;2024-03-22T15:35:12;99022.50;;;8.93;100.00
25722;BME280;13578;53.450;15.496;2024-03-22T15:38:13;99007.53;;;8.87;100.00
25722;BME280;13578;53.450;15.496;2024-03-22T15:41:14;99002.78;;;8.89;100.00
25722;BME280;13578;53.450;15.496;2024-03-22T15:44:18;98998.59;;;8.85;100.00